createdAt,value
2023-03-21T00:02:09.908Z,18.48
2023-03-21T00:04:51.317Z,18.53
2023-03-21T00:07:24.906Z,18.49
2023-03-21T00:10:08.693Z,18.50
2023-03-21T00:12:50.411Z,18.46
2023-03-21T00:15:30.702Z,18.50
2023-03-21T00:18:11.413Z,18.49
2023-03-21T00:20:47.457Z,18.47
2023-03-21T00:23:19.996Z,18.47
2023-03-21T00:25:52.844Z,18.45
2023-03-21T00:28:26.745Z,18.40
2023-03-21T00:31:00.188Z,18.45
2023-03-21T00:33:34.679Z,18.42
2023-03-21T00:36:09.961Z,18.43
2023-03-21T00:38:43.603Z,18.42
2023-03-21T00:41:26.311Z,18.40
2023-03-21T00:44:04.299Z,18.39
2023-03-21T00:46:47.016Z,18.36
2023-03-21T00:49:24.201Z,18.33
2023-03-21T00:51:59.589Z,18.32
2023-03-21T00:54:38.400Z,18.30
2023-03-21T00:57:10.999Z,18.35
2023-03-21T00:59:43.814Z,18.29
2023-03-21T01:02:23.135Z,18.29
2023-03-21T01:04:56.030Z,18.32
2023-03-21T01:07:28.766Z,18.29
2023-03-21T01:10:01.639Z,18.30
2023-03-21T01:12:34.197Z,18.32
2023-03-21T01:15:07.239Z,18.29
2023-03-21T01:17:39.796Z,18.30
2023-03-21T01:20:12.669Z,18.29
2023-03-21T01:22:45.556Z,18.31
2023-03-21T01:25:22.666Z,18.31
2023-03-21T01:27:55.960Z,18.28
2023-03-21T01:30:31.324Z,18.27
2023-03-21T01:33:06.669Z,18.29
2023-03-21T01:35:49.140Z,18.27
2023-03-21T01:38:26.105Z,18.28
2023-03-21T01:41:17.188Z,18.24
2023-03-21T01:43:53.162Z,18.27
2023-03-21T01:46:46.216Z,18.24
2023-03-21T01:49:35.791Z,18.27
2023-03-21T01:52:26.410Z,18.25
2023-03-21T01:55:07.645Z,18.26
2023-03-21T01:58:04.914Z,18.23
2023-03-21T02:00:38.935Z,18.19
2023-03-21T02:03:26.362Z,18.22
2023-03-21T02:06:11.157Z,18.16
2023-03-21T02:08:43.693Z,18.23
2023-03-21T02:11:17.538Z,18.21
2023-03-21T02:13:55.825Z,18.22
2023-03-21T02:16:52.490Z,18.21
2023-03-21T02:19:51.062Z,18.20
2023-03-21T02:23:08.050Z,18.25
2023-03-21T02:26:10.031Z,18.24
2023-03-21T02:29:03.706Z,18.18
2023-03-21T02:31:52.033Z,18.16
2023-03-21T02:34:58.388Z,18.17
2023-03-21T02:37:58.222Z,18.16
2023-03-21T02:40:57.005Z,18.16
2023-03-21T02:44:18.077Z,18.26
2023-03-21T02:47:05.607Z,18.12
2023-03-21T02:49:48.693Z,18.13
2023-03-21T02:52:38.659Z,18.11
2023-03-21T02:55:20.661Z,18.07
2023-03-21T02:57:59.248Z,18.05
2023-03-21T03:00:35.924Z,18.04
2023-03-21T03:03:11.479Z,18.06
2023-03-21T03:05:58.814Z,18.10
2023-03-21T03:09:29.492Z,18.10
2023-03-21T03:12:18.084Z,18.08
2023-03-21T03:15:09.779Z,18.04
2023-03-21T03:18:00.328Z,18.05
2023-03-21T03:21:01.130Z,18.07
2023-03-21T03:23:51.655Z,18.02
2023-03-21T03:26:37.283Z,18.00
2023-03-21T03:29:16.894Z,17.95
2023-03-21T03:31:59.890Z,17.97
2023-03-21T03:34:39.644Z,17.87
2023-03-21T03:37:19.248Z,17.86
2023-03-21T03:40:17.111Z,17.96
2023-03-21T03:42:56.526Z,17.88
2023-03-21T03:45:38.361Z,17.91
2023-03-21T03:48:30.449Z,17.96
2023-03-21T03:51:40.312Z,17.98
2023-03-21T03:54:21.806Z,17.84
2023-03-21T03:56:56.080Z,17.86
2023-03-21T03:59:28.734Z,17.84
2023-03-21T04:02:01.449Z,17.83
2023-03-21T04:04:37.016Z,17.82
2023-03-21T04:07:10.435Z,17.76
2023-03-21T04:09:44.953Z,17.84
2023-03-21T04:12:17.636Z,17.79
2023-03-21T04:14:50.471Z,17.78
2023-03-21T04:17:22.953Z,17.79
2023-03-21T04:20:05.440Z,17.81
2023-03-21T04:22:41.968Z,17.75
2023-03-21T04:25:21.883Z,17.77
2023-03-21T04:27:57.114Z,17.73
2023-03-21T04:30:34.062Z,17.76
2023-03-21T04:33:06.548Z,17.76
2023-03-21T04:35:39.107Z,17.76
2023-03-21T04:38:12.751Z,17.76
2023-03-21T04:40:45.277Z,17.77
2023-03-21T04:43:18.180Z,17.77
2023-03-21T04:45:52.069Z,17.71
2023-03-21T04:48:24.732Z,17.64
2023-03-21T04:50:57.299Z,17.72
2023-03-21T04:53:29.867Z,17.71
2023-03-21T04:56:02.363Z,17.71
2023-03-21T04:58:35.051Z,17.73
2023-03-21T05:01:08.703Z,17.73
2023-03-21T05:03:41.460Z,17.73
2023-03-21T05:06:14.035Z,17.71
2023-03-21T05:08:46.558Z,17.66
2023-03-21T05:11:19.106Z,17.61
2023-03-21T05:13:51.574Z,17.70
2023-03-21T05:16:26.929Z,17.67
2023-03-21T05:19:04.876Z,17.67
2023-03-21T05:21:45.007Z,17.58
2023-03-21T05:24:21.334Z,17.68
2023-03-21T05:26:56.488Z,17.67
2023-03-21T05:29:34.157Z,17.63
2023-03-21T05:32:06.665Z,17.65
2023-03-21T05:34:39.749Z,17.69
2023-03-21T05:37:12.306Z,17.68
2023-03-21T05:39:44.911Z,17.65
2023-03-21T05:42:18.798Z,17.64
2023-03-21T05:44:51.878Z,17.67
2023-03-21T05:47:24.806Z,17.63
2023-03-21T05:49:57.667Z,17.64
2023-03-21T05:52:30.330Z,17.60
2023-03-21T05:55:03.794Z,17.63
2023-03-21T05:57:39.206Z,17.64
2023-03-21T06:00:12.679Z,17.62
2023-03-21T06:02:45.649Z,17.64
2023-03-21T06:05:18.451Z,17.63
2023-03-21T06:07:51.121Z,17.58
2023-03-21T06:10:23.643Z,17.61
2023-03-21T06:12:56.922Z,17.58
2023-03-21T06:15:29.767Z,17.58
2023-03-21T06:18:02.505Z,17.60
2023-03-21T06:20:35.352Z,17.60
2023-03-21T06:23:08.156Z,17.57
2023-03-21T06:25:40.820Z,17.60
2023-03-21T06:28:13.558Z,17.57
2023-03-21T06:30:46.078Z,17.55
2023-03-21T06:33:18.705Z,17.55
2023-03-21T06:35:57.302Z,17.58
2023-03-21T06:38:30.241Z,17.59
2023-03-21T06:41:04.770Z,17.51
2023-03-21T06:43:37.358Z,17.57
2023-03-21T06:46:10.140Z,17.58
2023-03-21T06:48:44.772Z,17.61
2023-03-21T06:51:18.091Z,17.65
2023-03-21T06:53:50.713Z,17.71
2023-03-21T06:56:23.308Z,17.72
2023-03-21T06:58:55.941Z,17.80
2023-03-21T07:01:30.564Z,17.85
2023-03-21T07:04:04.509Z,17.85
2023-03-21T07:06:37.286Z,17.94
2023-03-21T07:09:10.066Z,17.99
2023-03-21T07:11:42.809Z,18.10
2023-03-21T07:14:15.307Z,18.16
2023-03-21T07:16:48.026Z,18.21
2023-03-21T07:19:20.539Z,18.28
2023-03-21T07:21:53.436Z,18.32
2023-03-21T07:24:26.178Z,18.38
2023-03-21T07:26:58.736Z,18.38
2023-03-21T07:29:31.414Z,18.51
2023-03-21T07:32:04.269Z,18.57
2023-03-21T07:34:38.215Z,18.58
2023-03-21T07:37:10.921Z,18.65
2023-03-21T07:39:43.584Z,18.69
2023-03-21T07:42:16.125Z,18.74
2023-03-21T07:44:48.859Z,18.79
2023-03-21T07:47:21.674Z,18.74
2023-03-21T07:49:54.144Z,18.84
2023-03-21T07:52:27.192Z,18.90
2023-03-21T07:54:59.739Z,18.94
2023-03-21T07:57:32.516Z,18.97
2023-03-21T08:00:06.989Z,19.02
2023-03-21T08:02:40.264Z,19.00
2023-03-21T08:05:12.917Z,19.09
2023-03-21T08:07:45.571Z,19.12
2023-03-21T08:10:19.513Z,19.13
2023-03-21T08:12:52.347Z,19.16
2023-03-21T08:15:25.080Z,19.23
2023-03-21T08:18:00.378Z,19.24
2023-03-21T08:20:33.002Z,19.26
2023-03-21T08:23:05.587Z,19.30
2023-03-21T08:25:39.121Z,19.28
2023-03-21T08:28:11.895Z,19.35
2023-03-21T08:30:44.586Z,19.34
2023-03-21T08:33:18.908Z,19.30
2023-03-21T08:35:51.572Z,19.41
2023-03-21T08:38:24.695Z,19.40
2023-03-21T08:41:00.094Z,19.42
2023-03-21T08:43:32.939Z,19.45
2023-03-21T08:46:06.102Z,19.40
2023-03-21T08:48:38.884Z,19.52
2023-03-21T08:51:11.648Z,19.53
2023-03-21T08:53:44.583Z,19.59
2023-03-21T08:56:17.908Z,19.61
2023-03-21T08:58:50.392Z,19.54
2023-03-21T09:01:23.000Z,19.59
2023-03-21T09:03:55.808Z,19.60
2023-03-21T09:06:30.024Z,19.65
2023-03-21T09:09:02.768Z,19.65
2023-03-21T09:11:35.435Z,19.61
2023-03-21T09:14:08.484Z,19.61
2023-03-21T09:16:41.444Z,19.66
2023-03-21T09:19:14.287Z,19.65
2023-03-21T09:21:47.730Z,19.62
2023-03-21T09:24:20.680Z,19.64
2023-03-21T09:26:53.500Z,19.63
2023-03-21T09:29:26.463Z,19.61
2023-03-21T09:31:59.651Z,19.60
2023-03-21T09:34:32.295Z,19.62
2023-03-21T09:37:12.178Z,19.57
2023-03-21T09:39:44.778Z,19.53
2023-03-21T09:42:35.307Z,19.55
2023-03-21T09:45:43.535Z,19.68
2023-03-21T09:48:39.647Z,19.56
2023-03-21T09:51:19.321Z,19.54
2023-03-21T09:53:57.804Z,19.53
2023-03-21T09:56:30.569Z,19.50
2023-03-21T09:59:09.062Z,19.48
2023-03-21T10:01:48.105Z,19.51
2023-03-21T10:04:22.426Z,19.51
2023-03-21T10:07:01.838Z,19.51
2023-03-21T10:09:34.817Z,19.50
2023-03-21T10:12:19.706Z,19.42
2023-03-21T10:14:58.951Z,19.48
2023-03-21T10:17:41.540Z,19.48
2023-03-21T10:20:30.904Z,19.46
2023-03-21T10:23:08.201Z,19.38
2023-03-21T10:25:46.725Z,19.43
2023-03-21T10:28:26.861Z,19.35
2023-03-21T10:31:07.947Z,19.40
2023-03-21T10:33:47.806Z,19.33
2023-03-21T10:36:27.789Z,19.41
2023-03-21T10:39:06.792Z,19.41
2023-03-21T10:41:40.289Z,19.37
2023-03-21T10:44:17.895Z,19.37
2023-03-21T10:47:09.869Z,19.43
2023-03-21T10:50:06.301Z,19.41
2023-03-21T10:52:38.496Z,19.35
2023-03-21T10:55:33.092Z,19.46
2023-03-21T10:58:18.985Z,19.44
2023-03-21T11:01:00.720Z,19.41
2023-03-21T11:03:44.433Z,19.41
2023-03-21T11:06:35.041Z,19.43
2023-03-21T11:09:25.000Z,19.45
2023-03-21T11:12:11.507Z,19.43
2023-03-21T11:14:49.231Z,19.37
2023-03-21T11:17:28.292Z,19.27
2023-03-21T11:20:06.294Z,19.37
2023-03-21T11:22:43.407Z,19.36
2023-03-21T11:25:42.103Z,19.40
2023-03-21T11:28:21.247Z,19.37
2023-03-21T11:30:58.440Z,19.35
2023-03-21T11:33:41.475Z,19.38
2023-03-21T11:36:19.741Z,19.35
2023-03-21T11:39:12.743Z,19.35
2023-03-21T11:41:52.344Z,19.32
2023-03-21T11:44:33.286Z,19.34
2023-03-21T11:47:06.280Z,19.33
2023-03-21T11:49:39.161Z,19.32
2023-03-21T11:52:30.205Z,19.31
2023-03-21T11:55:17.321Z,19.31
2023-03-21T11:58:13.489Z,19.33
2023-03-21T12:01:20.503Z,19.42
2023-03-21T12:04:02.525Z,19.33
2023-03-21T12:06:38.488Z,19.33
2023-03-21T12:09:18.210Z,19.32
2023-03-21T12:12:39.376Z,19.44
2023-03-21T12:15:37.131Z,19.40
2023-03-21T12:18:59.095Z,19.44
2023-03-21T12:21:42.845Z,19.34
2023-03-21T12:24:42.262Z,19.39
2023-03-21T12:27:37.020Z,19.36
2023-03-21T12:30:48.245Z,19.61
2023-03-21T12:34:05.879Z,19.38
2023-03-21T12:37:26.475Z,19.48
2023-03-21T12:40:21.822Z,19.40
2023-03-21T12:43:35.000Z,19.32
2023-03-21T12:46:27.404Z,19.32
2023-03-21T12:49:15.321Z,19.34
2023-03-21T12:51:55.795Z,19.30
2023-03-21T12:54:48.489Z,19.35
2023-03-21T12:57:47.794Z,19.32
2023-03-21T13:00:44.542Z,19.35
2023-03-21T13:03:40.295Z,19.28
2023-03-21T13:06:18.378Z,19.24
2023-03-21T13:09:10.193Z,19.28
2023-03-21T13:11:45.641Z,19.25
2023-03-21T13:14:30.396Z,19.23
2023-03-21T13:18:15.737Z,19.30
2023-03-21T13:21:04.979Z,19.30
2023-03-21T13:23:39.366Z,19.26
2023-03-21T13:26:12.461Z,19.25
2023-03-21T13:28:48.593Z,19.26
2023-03-21T13:31:26.871Z,19.26
2023-03-21T13:34:00.295Z,19.25
2023-03-21T13:36:38.180Z,19.23
2023-03-21T13:39:24.405Z,19.22
2023-03-21T13:42:06.173Z,19.26
2023-03-21T13:44:50.658Z,19.24
2023-03-21T13:47:53.289Z,19.24
2023-03-21T13:50:28.172Z,19.22
2023-03-21T13:53:03.779Z,19.20
2023-03-21T13:55:44.548Z,19.14
2023-03-21T13:58:51.871Z,19.23
2023-03-21T14:01:27.399Z,19.20
2023-03-21T14:04:17.433Z,19.16
2023-03-21T14:07:03.650Z,19.23
2023-03-21T14:09:46.323Z,19.20
2023-03-21T14:12:26.356Z,19.19
2023-03-21T14:15:18.102Z,19.22
2023-03-21T14:17:56.486Z,19.21
2023-03-21T14:20:39.285Z,19.16
2023-03-21T14:23:17.172Z,19.17
2023-03-21T14:25:51.003Z,19.17
2023-03-21T14:28:29.936Z,19.20
2023-03-21T14:31:03.696Z,19.18
2023-03-21T14:33:41.543Z,19.12
2023-03-21T14:36:19.440Z,19.10
2023-03-21T14:39:17.048Z,19.20
2023-03-21T14:41:56.552Z,19.16
2023-03-21T14:44:54.836Z,19.17
2023-03-21T14:47:32.194Z,19.10
2023-03-21T14:50:10.637Z,19.08
2023-03-21T14:52:44.492Z,19.06
2023-03-21T14:55:17.512Z,19.12
2023-03-21T14:57:50.428Z,19.11
2023-03-21T15:00:30.433Z,19.10
2023-03-21T15:03:03.688Z,19.13
2023-03-21T15:05:38.428Z,19.12
2023-03-21T15:08:20.962Z,19.11
2023-03-21T15:11:07.220Z,19.11
2023-03-21T15:13:55.039Z,19.11
2023-03-21T15:16:28.253Z,19.02
2023-03-21T15:19:03.269Z,19.03
2023-03-21T15:21:43.868Z,18.88
2023-03-21T15:24:28.918Z,19.03
2023-03-21T15:27:07.749Z,18.99
2023-03-21T15:29:42.879Z,18.97
2023-03-21T15:32:24.346Z,18.96
2023-03-21T15:35:08.298Z,18.88
2023-03-21T15:37:41.209Z,18.97
2023-03-21T15:40:22.998Z,18.97
2023-03-21T15:43:25.909Z,19.06
2023-03-21T15:45:58.785Z,18.97
2023-03-21T15:48:34.831Z,18.96
2023-03-21T15:51:21.713Z,18.96
2023-03-21T15:53:54.412Z,18.96
2023-03-21T15:56:34.746Z,18.94
2023-03-21T15:59:15.104Z,18.85
2023-03-21T16:01:49.850Z,18.89
2023-03-21T16:04:24.396Z,18.93
2023-03-21T16:07:15.516Z,18.92
2023-03-21T16:09:48.057Z,18.92
2023-03-21T16:12:20.816Z,18.91
2023-03-21T16:14:55.481Z,18.90
2023-03-21T16:17:37.555Z,18.89
2023-03-21T16:20:24.006Z,18.81
2023-03-21T16:22:56.503Z,18.88
2023-03-21T16:25:30.992Z,18.86
2023-03-21T16:28:04.083Z,18.85
2023-03-21T16:30:38.627Z,18.77
2023-03-21T16:33:13.062Z,18.82
2023-03-21T16:35:45.973Z,18.79
2023-03-21T16:38:18.515Z,18.79
2023-03-21T16:40:52.054Z,18.81
2023-03-21T16:43:24.594Z,18.81
2023-03-21T16:45:57.128Z,18.79
2023-03-21T16:48:29.864Z,18.76
2023-03-21T16:51:02.589Z,18.75
2023-03-21T16:53:35.412Z,18.76
2023-03-21T16:56:18.790Z,18.78
2023-03-21T16:58:55.346Z,18.74
2023-03-21T17:01:29.854Z,18.71
2023-03-21T17:04:02.727Z,18.70
2023-03-21T17:06:52.221Z,18.69
2023-03-21T17:09:29.121Z,18.70
2023-03-21T17:12:01.684Z,18.67
2023-03-21T17:14:34.205Z,18.61
2023-03-21T17:17:11.472Z,18.63
2023-03-21T17:19:44.637Z,18.67
2023-03-21T17:22:17.283Z,18.62
2023-03-21T17:24:49.836Z,18.59
2023-03-21T17:27:22.708Z,18.55
2023-03-21T17:29:57.539Z,18.58
2023-03-21T17:32:30.091Z,18.55
2023-03-21T17:35:02.617Z,18.53
2023-03-21T17:37:35.267Z,18.53
2023-03-21T17:40:12.523Z,18.50
2023-03-21T17:42:45.286Z,18.49
2023-03-21T17:45:19.647Z,18.48
2023-03-21T17:47:55.038Z,18.46
2023-03-21T17:50:37.509Z,18.43
2023-03-21T17:53:10.391Z,18.41
2023-03-21T17:55:43.077Z,18.43
2023-03-21T17:58:18.041Z,18.41
2023-03-21T18:00:50.900Z,18.37
2023-03-21T18:03:23.478Z,18.40
2023-03-21T18:05:56.068Z,18.40
2023-03-21T18:08:28.572Z,18.39
2023-03-21T18:11:01.218Z,18.27
2023-03-21T18:13:34.197Z,18.38
2023-03-21T18:16:08.325Z,18.36
2023-03-21T18:18:41.149Z,18.37
2023-03-21T18:21:18.909Z,18.35
2023-03-21T18:23:52.063Z,18.25
2023-03-21T18:26:24.759Z,18.36
2023-03-21T18:29:53.239Z,18.38
2023-03-21T18:32:04.809Z,18.35
2023-03-21T18:34:40.025Z,18.25
2023-03-21T18:37:13.604Z,18.35
2023-03-21T18:39:46.565Z,18.28
2023-03-21T18:42:21.589Z,18.31
2023-03-21T18:44:56.506Z,18.30
2023-03-21T18:47:29.313Z,18.29
2023-03-21T18:50:13.828Z,18.29
2023-03-21T18:52:47.390Z,18.28
2023-03-21T18:55:20.834Z,18.24
2023-03-21T18:57:54.082Z,18.26
2023-03-21T19:00:27.879Z,18.26
2023-03-21T19:03:17.155Z,18.25
2023-03-21T19:05:59.392Z,18.26
2023-03-21T19:08:34.746Z,18.23
2023-03-21T19:11:08.534Z,18.25
2023-03-21T19:13:41.244Z,18.22
2023-03-21T19:16:14.465Z,18.23
2023-03-21T19:18:54.952Z,18.24
2023-03-21T19:21:30.057Z,18.20
2023-03-21T19:26:55.936Z,18.20
2023-03-21T19:29:28.817Z,18.19
2023-03-21T19:32:01.481Z,18.20
2023-03-21T19:34:34.596Z,18.18
2023-03-21T19:37:07.215Z,18.19
2023-03-21T19:39:40.006Z,18.19
2023-03-21T19:42:16.785Z,18.18
2023-03-21T19:44:50.149Z,18.17
2023-03-21T19:47:22.835Z,18.17
2023-03-21T19:50:40.764Z,18.11
2023-03-21T19:52:48.027Z,18.12
2023-03-21T19:55:20.807Z,18.14
2023-03-21T19:57:53.656Z,18.12
2023-03-21T20:00:26.310Z,18.12
2023-03-21T20:02:59.325Z,18.08
2023-03-21T20:05:32.106Z,18.14
2023-03-21T20:08:07.907Z,18.04
2023-03-21T20:10:46.842Z,18.11
2023-03-21T20:13:19.445Z,18.11
2023-03-21T20:15:55.110Z,18.09
2023-03-21T20:18:28.328Z,18.10
2023-03-21T20:21:02.151Z,18.05
2023-03-21T20:23:35.521Z,18.10
2023-03-21T20:26:13.364Z,18.10
2023-03-21T20:28:56.521Z,18.07
2023-03-21T20:31:40.150Z,18.08
2023-03-21T20:34:13.156Z,18.10
2023-03-21T20:36:45.836Z,18.06
2023-03-21T20:39:19.214Z,18.08
2023-03-21T20:41:54.702Z,18.05
2023-03-21T20:44:57.343Z,18.07
2023-03-21T20:47:20.819Z,18.08
2023-03-21T20:49:55.239Z,18.07
2023-03-21T20:52:57.432Z,18.07
2023-03-21T20:55:21.857Z,18.02
2023-03-21T20:57:55.041Z,18.01
2023-03-21T21:00:27.767Z,18.07
2023-03-21T21:03:00.336Z,18.06
2023-03-21T21:05:34.845Z,18.06
2023-03-21T21:08:08.072Z,18.11
2023-03-21T21:11:04.053Z,18.14
2023-03-21T21:13:33.333Z,18.19
2023-03-21T21:16:08.185Z,18.22
2023-03-21T21:18:41.504Z,18.25
2023-03-21T21:21:14.446Z,18.29
2023-03-21T21:23:47.130Z,18.32
2023-03-21T21:26:19.795Z,18.40
2023-03-21T21:28:53.312Z,18.47
2023-03-21T21:31:28.165Z,18.53
2023-03-21T21:34:01.715Z,18.58
2023-03-21T21:36:34.359Z,18.64
2023-03-21T21:39:07.458Z,18.67
2023-03-21T21:41:40.199Z,18.72
2023-03-21T21:44:12.875Z,18.78
2023-03-21T21:46:45.721Z,18.76
2023-03-21T21:49:18.352Z,18.83
2023-03-21T21:51:50.927Z,18.85
2023-03-21T21:54:23.488Z,18.87
2023-03-21T21:56:58.007Z,18.91
2023-03-21T21:59:30.684Z,18.94
2023-03-21T22:02:05.619Z,18.96
2023-03-21T22:04:38.454Z,18.97
2023-03-21T22:07:14.693Z,18.98
2023-03-21T22:09:47.688Z,18.96
2023-03-21T22:12:20.539Z,18.99
2023-03-21T22:14:53.263Z,18.98
2023-03-21T22:17:26.312Z,19.00
2023-03-21T22:20:06.202Z,18.99
2023-03-21T22:22:39.690Z,18.98
2023-03-21T22:25:15.368Z,18.95
2023-03-21T22:27:47.998Z,18.97
2023-03-21T22:30:20.801Z,18.91
2023-03-21T22:33:08.086Z,18.93
2023-03-21T22:35:41.642Z,18.94
2023-03-21T22:38:14.347Z,18.96
2023-03-21T22:40:57.635Z,18.92
2023-03-21T22:43:33.986Z,18.92
2023-03-21T22:46:07.082Z,18.90
2023-03-21T22:48:39.698Z,18.91
2023-03-21T22:51:12.483Z,18.83
2023-03-21T22:53:45.503Z,18.86
2023-03-21T22:56:18.161Z,18.86
2023-03-21T22:58:50.925Z,18.85
2023-03-21T23:01:23.717Z,18.82
2023-03-21T23:03:56.668Z,18.84
2023-03-21T23:06:29.423Z,18.82
2023-03-21T23:09:02.552Z,18.80
2023-03-21T23:11:37.068Z,18.81
2023-03-21T23:14:10.186Z,18.76
2023-03-21T23:16:43.286Z,18.80
2023-03-21T23:19:16.304Z,18.79
2023-03-21T23:21:49.180Z,18.77
2023-03-21T23:24:22.629Z,18.69
2023-03-21T23:26:55.184Z,18.69
2023-03-21T23:29:27.775Z,18.73
2023-03-21T23:32:00.940Z,18.72
2023-03-21T23:34:33.566Z,18.71
2023-03-21T23:37:06.862Z,18.67
2023-03-21T23:39:42.468Z,18.67
2023-03-21T23:42:15.057Z,18.61
2023-03-21T23:44:47.813Z,18.65
2023-03-21T23:47:20.747Z,18.64
2023-03-21T23:49:53.351Z,18.61
2023-03-21T23:52:26.213Z,18.62
2023-03-21T23:54:59.693Z,18.59
2023-03-21T23:57:39.790Z,18.56
